Terminal Aerodrome Forecast
Issued by NWS

Home | Current Version | Previous Version | Text Only | Print | Product List | Glossary On
Versions: 1 2 3 4 5 6 7 8 9 10 11 12 13
119
FTAK31 PAJN 291120
TAFAPG
TAF
PAPG 291120Z 2912/3012 VRB03KT P6SM SCT030 BKN060
     FM291800 06006KT P6SM VCSH BKN030 BKN060
     FM300000 10006KT P6SM -SHRA SCT025 OVC050
      AMD LTD TO CLD VIS AND WIND 2912/2915=

USA.gov is the U.S. government's official web portal to all federal, state and local government web resources and services.